createdAt,value
2018-06-05T00:02:00.185Z,98.00
2018-06-05T00:04:03.376Z,103.77
2018-06-05T00:06:06.564Z,102.87
2018-06-05T00:08:09.772Z,103.43
2018-06-05T00:10:12.952Z,100.60
2018-06-05T00:12:16.127Z,97.33
2018-06-05T00:14:19.288Z,123.23
2018-06-05T00:16:23.445Z,120.27
2018-06-05T00:18:26.664Z,99.90
2018-06-05T00:20:29.832Z,121.23
2018-06-05T00:22:33.044Z,109.60
2018-06-05T00:24:36.200Z,116.03
2018-06-05T00:26:39.407Z,121.27
2018-06-05T00:28:43.164Z,100.17
2018-06-05T00:30:46.327Z,91.93
2018-06-05T00:32:49.559Z,97.83
2018-06-05T00:34:52.724Z,106.17
2018-06-05T00:36:55.957Z,102.10
2018-06-05T00:38:59.180Z,93.13
2018-06-05T00:41:02.415Z,102.03
2018-06-05T00:43:05.731Z,112.83
2018-06-05T00:45:08.895Z,99.97
2018-06-05T00:47:12.108Z,108.53
2018-06-05T00:49:15.263Z,106.33
2018-06-05T00:51:30.017Z,124.70
2018-06-05T00:53:33.246Z,109.57
2018-06-05T00:55:36.433Z,128.87
2018-06-05T00:57:39.624Z,134.77
2018-06-05T00:59:42.884Z,141.67
2018-06-05T01:01:46.671Z,139.10
2018-06-05T01:03:49.846Z,149.23
2018-06-05T01:05:53.040Z,144.80
2018-06-05T01:07:56.254Z,148.20
2018-06-05T01:09:59.437Z,141.57
2018-06-05T01:12:02.676Z,148.03
2018-06-05T01:14:05.971Z,146.07
2018-06-05T01:16:09.175Z,134.63
2018-06-05T01:18:12.392Z,142.20
2018-06-05T01:20:15.539Z,139.70
2018-06-05T01:22:18.716Z,127.73
2018-06-05T01:24:21.956Z,141.60
2018-06-05T01:26:25.193Z,143.87
2018-06-05T01:28:28.447Z,141.43
2018-06-05T01:30:31.735Z,124.90
2018-06-05T01:32:34.927Z,135.50
2018-06-05T01:34:38.160Z,139.37
2018-06-05T01:36:41.381Z,137.27
2018-06-05T01:38:44.631Z,130.33
2018-06-05T01:40:47.839Z,133.17
2018-06-05T01:42:51.099Z,138.50
2018-06-05T01:44:54.276Z,130.03
2018-06-05T01:46:57.479Z,124.70
2018-06-05T01:49:01.300Z,121.70
2018-06-05T01:51:04.482Z,124.13
2018-06-05T01:53:07.720Z,112.80
2018-06-05T01:55:10.860Z,98.80
2018-06-05T01:57:14.050Z,130.20
2018-06-05T01:59:17.205Z,118.23
2018-06-05T02:01:20.372Z,123.40
2018-06-05T02:03:23.555Z,119.67
2018-06-05T02:05:26.692Z,116.07
2018-06-05T02:07:29.965Z,119.80
2018-06-05T02:09:33.148Z,112.87
2018-06-05T02:11:36.327Z,126.20
2018-06-05T02:13:39.470Z,108.37
2018-06-05T02:15:42.662Z,118.27
2018-06-05T02:17:45.936Z,119.63
2018-06-05T02:19:49.153Z,107.87
2018-06-05T02:21:53.023Z,119.10
2018-06-05T02:23:56.196Z,105.60
2018-06-05T02:25:59.365Z,93.07
2018-06-05T02:28:02.586Z,99.53
2018-06-05T02:30:05.872Z,85.70
2018-06-05T02:32:09.020Z,92.50
2018-06-05T02:34:12.199Z,94.13
2018-06-05T02:36:15.401Z,88.07
2018-06-05T02:38:18.612Z,94.70
2018-06-05T02:40:21.788Z,88.97
2018-06-05T02:42:24.996Z,95.77
2018-06-05T02:44:28.189Z,91.87
2018-06-05T02:46:31.520Z,95.07
2018-06-05T02:48:34.776Z,91.67
2018-06-05T02:50:37.977Z,98.13
2018-06-05T02:52:41.148Z,93.80
2018-06-05T02:54:44.351Z,97.37
2018-06-05T02:56:47.543Z,110.93
2018-06-05T02:58:50.735Z,110.50
2018-06-05T03:00:53.897Z,104.70
2018-06-05T03:02:57.130Z,103.87
2018-06-05T03:05:00.369Z,107.90
2018-06-05T03:07:03.563Z,110.83
2018-06-05T03:09:07.633Z,120.30
2018-06-05T03:11:11.123Z,121.07
2018-06-05T03:13:14.350Z,131.20
2018-06-05T03:15:17.540Z,127.10
2018-06-05T03:17:20.728Z,136.40
2018-06-05T03:19:23.923Z,142.03
2018-06-05T03:21:27.100Z,128.80
2018-06-05T03:23:30.296Z,127.93
2018-06-05T03:25:33.769Z,117.53
2018-06-05T03:27:36.721Z,118.87
2018-06-05T03:29:39.940Z,114.27
2018-06-05T03:31:43.159Z,110.20
2018-06-05T03:33:46.350Z,107.87
2018-06-05T03:35:49.552Z,103.07
2018-06-05T03:37:52.788Z,83.30
2018-06-05T03:39:56.499Z,89.70
2018-06-05T03:41:59.675Z,76.70
2018-06-05T03:44:02.957Z,79.67
2018-06-05T03:46:06.271Z,62.93
2018-06-05T03:48:09.450Z,69.80
2018-06-05T03:50:12.683Z,64.17
2018-06-05T03:52:15.876Z,67.83
2018-06-05T03:54:19.089Z,67.07
2018-06-05T03:56:22.316Z,68.13
2018-06-05T03:58:25.506Z,68.73
2018-06-05T04:00:28.799Z,68.07
2018-06-05T04:02:31.999Z,59.57
2018-06-05T04:04:35.263Z,61.20
2018-06-05T04:06:38.452Z,69.47
2018-06-05T04:08:41.678Z,67.87
2018-06-05T04:10:44.951Z,68.30
2018-06-05T04:12:48.119Z,72.33
2018-06-05T04:14:51.315Z,69.97
2018-06-05T04:16:54.500Z,67.87
2018-06-05T04:18:57.748Z,76.23
2018-06-05T04:21:00.957Z,71.73
2018-06-05T04:23:04.788Z,71.93
2018-06-05T04:25:07.978Z,77.67
2018-06-05T04:27:11.272Z,76.90
2018-06-05T04:29:14.468Z,78.10
2018-06-05T04:31:17.680Z,76.07
2018-06-05T04:33:20.924Z,80.47
2018-06-05T04:35:24.121Z,74.00
2018-06-05T04:37:27.359Z,82.73
2018-06-05T04:39:30.525Z,83.13
2018-06-05T04:41:33.703Z,85.57
2018-06-05T04:43:36.889Z,87.30
2018-06-05T04:45:40.832Z,79.70
2018-06-05T04:47:44.034Z,74.33
2018-06-05T04:49:47.803Z,81.70
2018-06-05T04:51:51.023Z,74.67
2018-06-05T04:53:54.288Z,71.87
2018-06-05T04:55:57.473Z,74.40
2018-06-05T04:58:00.434Z,72.60
2018-06-05T05:00:03.665Z,64.37
2018-06-05T05:02:06.849Z,76.70
2018-06-05T05:04:10.057Z,70.67
2018-06-05T05:06:13.221Z,65.10
2018-06-05T05:08:16.415Z,83.33
2018-06-05T05:10:19.592Z,72.90
2018-06-05T05:12:22.775Z,83.60
2018-06-05T05:14:25.762Z,91.73
2018-06-05T05:16:28.692Z,84.90
2018-06-05T05:18:31.818Z,100.63
2018-06-05T05:20:34.959Z,108.90
2018-06-05T05:22:38.092Z,108.50
2018-06-05T05:24:41.240Z,94.70
2018-06-05T05:26:44.386Z,102.53
2018-06-05T05:28:47.548Z,116.00
2018-06-05T05:30:50.739Z,109.77
2018-06-05T05:32:53.844Z,116.37
2018-06-05T05:34:56.984Z,93.43
2018-06-05T05:37:00.116Z,110.97
2018-06-05T05:39:03.477Z,112.13
2018-06-05T05:41:06.633Z,101.47
2018-06-05T05:43:09.800Z,90.80
2018-06-05T05:45:12.958Z,102.10
2018-06-05T05:47:16.141Z,96.50
2018-06-05T05:49:19.288Z,93.83
2018-06-05T05:51:22.438Z,94.23
2018-06-05T05:53:25.593Z,85.47
2018-06-05T05:55:28.755Z,83.57
2018-06-05T05:57:31.891Z,83.67
2018-06-05T05:59:35.044Z,86.90
2018-06-05T06:01:38.195Z,72.40
2018-06-05T06:03:41.373Z,70.20
2018-06-05T06:05:44.517Z,75.93
2018-06-05T06:07:47.648Z,74.93
2018-06-05T06:09:51.276Z,71.77
2018-06-05T06:11:54.436Z,75.30
2018-06-05T06:13:57.611Z,79.53
2018-06-05T06:16:00.799Z,80.33
2018-06-05T06:18:03.968Z,90.23
2018-06-05T06:20:07.139Z,85.47
2018-06-05T06:22:10.284Z,86.33
2018-06-05T06:24:14.479Z,89.73
2018-06-05T06:26:17.925Z,84.13
2018-06-05T06:28:21.668Z,84.00
2018-06-05T06:30:24.804Z,78.20
2018-06-05T06:32:27.941Z,82.00
2018-06-05T06:34:31.704Z,80.93
2018-06-05T06:36:34.832Z,81.70
2018-06-05T06:38:38.092Z,81.03
2018-06-05T06:40:41.188Z,90.97
2018-06-05T06:42:44.476Z,83.30
2018-06-05T06:44:47.707Z,81.00
2018-06-05T06:46:50.840Z,92.50
2018-06-05T06:48:54.040Z,87.50
2018-06-05T06:50:57.139Z,105.63
2018-06-05T06:53:00.513Z,88.63
2018-06-05T06:55:03.640Z,94.87
2018-06-05T06:57:06.772Z,102.63
2018-06-05T06:59:09.917Z,112.10
2018-06-05T07:01:13.052Z,98.90
2018-06-05T07:03:16.192Z,100.43
2018-06-05T07:05:19.323Z,97.87
2018-06-05T07:07:22.557Z,87.53
2018-06-05T07:09:25.680Z,84.63
2018-06-05T07:11:28.826Z,94.47
2018-06-05T07:13:31.972Z,90.47
2018-06-05T07:15:35.129Z,87.70
2018-06-05T07:17:38.019Z,80.97
2018-06-05T07:19:41.156Z,97.37
2018-06-05T07:21:44.360Z,100.40
2018-06-05T07:23:47.500Z,83.50
2018-06-05T07:25:50.640Z,92.87
2018-06-05T07:27:53.785Z,91.60
2018-06-05T07:29:56.935Z,93.57
2018-06-05T07:32:00.082Z,88.70
2018-06-05T07:34:03.329Z,77.83
2018-06-05T07:36:06.574Z,79.37
2018-06-05T07:38:09.708Z,80.00
2018-06-05T07:40:12.862Z,75.30
2018-06-05T07:42:16.027Z,78.73
2018-06-05T07:44:19.171Z,78.30
2018-06-05T07:46:22.405Z,76.30
2018-06-05T07:48:25.556Z,73.30
2018-06-05T07:50:28.731Z,66.43
2018-06-05T07:52:31.901Z,66.77
2018-06-05T07:54:35.044Z,67.47
2018-06-05T07:56:38.211Z,72.70
2018-06-05T07:58:41.358Z,88.07
2018-06-05T08:00:44.505Z,73.60
2018-06-05T08:02:47.706Z,63.17
2018-06-05T08:04:50.659Z,71.50
2018-06-05T08:06:53.811Z,64.37
2018-06-05T08:08:57.047Z,73.87
2018-06-05T08:11:00.195Z,67.90
2018-06-05T08:13:03.343Z,69.83
2018-06-05T08:15:06.506Z,59.90
2018-06-05T08:17:09.668Z,64.00
2018-06-05T08:19:12.821Z,64.83
2018-06-05T08:21:15.972Z,66.73
2018-06-05T08:23:18.936Z,61.03
2018-06-05T08:25:22.092Z,47.03
2018-06-05T08:27:25.245Z,47.00
2018-06-05T08:29:28.411Z,51.90
2018-06-05T08:31:31.561Z,45.90
2018-06-05T08:33:34.717Z,44.87
2018-06-05T08:35:37.868Z,53.17
2018-06-05T08:37:41.037Z,47.83
2018-06-05T08:39:44.240Z,62.60
2018-06-05T08:41:47.370Z,50.10
2018-06-05T08:43:50.499Z,55.80
2018-06-05T08:45:53.632Z,52.67
2018-06-05T08:47:56.787Z,60.80
2018-06-05T08:49:59.699Z,57.73
2018-06-05T08:52:02.842Z,59.70
2018-06-05T08:54:06.023Z,62.87
2018-06-05T08:56:09.716Z,60.40
2018-06-05T08:58:12.840Z,69.20
2018-06-05T09:00:15.980Z,58.17
2018-06-05T09:02:19.112Z,52.60
2018-06-05T09:04:22.252Z,53.60
2018-06-05T09:06:25.424Z,52.43
2018-06-05T09:08:28.655Z,49.60
2018-06-05T09:10:31.863Z,64.97
2018-06-05T09:12:35.016Z,56.47
2018-06-05T09:14:40.730Z,44.20
2018-06-05T09:16:43.861Z,56.20
2018-06-05T09:18:46.763Z,55.37
2018-06-05T09:20:49.904Z,61.93
2018-06-05T09:22:53.049Z,60.70
2018-06-05T09:24:56.180Z,58.63
2018-06-05T09:26:59.327Z,57.53
2018-06-05T09:29:02.478Z,61.17
2018-06-05T09:31:05.584Z,46.90
2018-06-05T09:33:08.996Z,52.30
2018-06-05T09:35:12.123Z,48.33
2018-06-05T09:37:15.272Z,57.33
2018-06-05T09:39:18.510Z,51.80
2018-06-05T09:41:21.651Z,56.77
2018-06-05T09:43:24.820Z,51.60
2018-06-05T09:45:27.959Z,43.03
2018-06-05T09:47:31.124Z,54.87
2018-06-05T09:49:34.263Z,49.93
2018-06-05T09:51:37.421Z,50.33
2018-06-05T09:53:40.871Z,41.17
2018-06-05T09:55:44.008Z,49.43
2018-06-05T09:57:47.190Z,49.47
2018-06-05T09:59:50.304Z,48.30
2018-06-05T10:01:53.455Z,48.63
2018-06-05T10:03:56.636Z,41.67
2018-06-05T10:05:59.757Z,40.17
2018-06-05T10:08:02.916Z,39.40
2018-06-05T10:10:06.237Z,40.00
2018-06-05T10:12:09.396Z,39.77
2018-06-05T10:14:12.571Z,40.93
2018-06-05T10:16:15.676Z,40.57
2018-06-05T10:18:18.835Z,38.73
2018-06-05T10:20:22.049Z,37.33
2018-06-05T10:22:25.288Z,38.10
2018-06-05T10:24:28.436Z,39.13
2018-06-05T10:26:31.576Z,32.03
2018-06-05T10:28:34.752Z,37.83
2018-06-05T10:30:37.906Z,40.33
2018-06-05T10:32:41.056Z,35.23
2018-06-05T10:34:44.282Z,32.13
2018-06-05T10:36:47.375Z,40.13
2018-06-05T10:38:50.521Z,42.80
2018-06-05T10:40:53.869Z,36.13
2018-06-05T10:42:57.040Z,35.97
2018-06-05T10:45:00.191Z,32.77
2018-06-05T10:47:03.121Z,33.50
2018-06-05T10:49:06.363Z,32.10
2018-06-05T10:51:09.511Z,40.73
2018-06-05T10:53:12.680Z,33.50
2018-06-05T10:55:15.824Z,34.73
2018-06-05T10:57:18.790Z,36.63
2018-06-05T10:59:21.946Z,37.63
2018-06-05T11:01:25.101Z,34.77
2018-06-05T11:03:28.235Z,32.93
2018-06-05T11:05:31.380Z,35.47
2018-06-05T11:07:34.572Z,42.57
2018-06-05T11:09:37.719Z,43.57
2018-06-05T11:11:40.672Z,34.10
2018-06-05T11:13:44.680Z,31.80
2018-06-05T11:15:47.867Z,37.50
2018-06-05T11:17:51.024Z,37.73
2018-06-05T11:19:54.167Z,43.10
2018-06-05T11:21:57.315Z,36.67
2018-06-05T11:24:00.472Z,37.37
2018-06-05T11:26:03.626Z,32.70
2018-06-05T11:28:06.794Z,41.57
2018-06-05T11:30:09.972Z,38.93
2018-06-05T11:32:13.178Z,47.80
2018-06-05T11:34:16.346Z,37.73
2018-06-05T11:36:19.475Z,45.20
2018-06-05T11:38:22.628Z,41.73
2018-06-05T11:40:25.753Z,37.70
2018-06-05T11:42:28.879Z,38.87
2018-06-05T11:44:32.077Z,38.97
2018-06-05T11:46:35.244Z,35.07
2018-06-05T11:48:38.332Z,38.70
2018-06-05T11:50:41.471Z,36.17
2018-06-05T11:52:44.600Z,34.27
2018-06-05T11:54:47.780Z,38.23
2018-06-05T11:56:51.015Z,43.70
2018-06-05T11:58:54.156Z,44.23
2018-06-05T12:00:57.281Z,34.87
2018-06-05T12:03:00.412Z,37.13
2018-06-05T12:05:03.560Z,35.57
2018-06-05T12:07:06.696Z,46.73
2018-06-05T12:09:09.983Z,50.83
2018-06-05T12:11:13.204Z,45.50
2018-06-05T12:13:16.348Z,41.00
2018-06-05T12:15:19.505Z,41.20
2018-06-05T12:17:22.431Z,39.63
2018-06-05T12:19:25.580Z,36.67
2018-06-05T12:21:28.540Z,42.30
2018-06-05T12:23:31.691Z,46.83
2018-06-05T12:25:34.885Z,42.07
2018-06-05T12:27:37.964Z,40.17
2018-06-05T12:29:41.151Z,46.57
2018-06-05T12:31:44.275Z,44.63
2018-06-05T12:33:47.403Z,44.80
2018-06-05T12:35:50.544Z,48.60
2018-06-05T12:37:53.696Z,50.93
2018-06-05T12:39:56.951Z,47.30
2018-06-05T12:42:00.119Z,53.00
2018-06-05T12:44:03.692Z,36.80
2018-06-05T12:46:06.858Z,40.40
2018-06-05T12:48:10.010Z,45.67
2018-06-05T12:50:14.024Z,38.97
2018-06-05T12:52:17.174Z,40.43
2018-06-05T12:54:20.312Z,43.63
2018-06-05T12:56:23.512Z,39.57
2018-06-05T12:58:26.676Z,39.87
2018-06-05T13:00:29.827Z,45.13
2018-06-05T13:02:32.751Z,38.43
2018-06-05T13:04:35.927Z,49.87
2018-06-05T13:06:39.084Z,31.20
2018-06-05T13:08:42.219Z,34.20
2018-06-05T13:10:45.379Z,40.93
2018-06-05T13:12:48.540Z,46.70
2018-06-05T13:14:51.698Z,35.63
2018-06-05T13:16:54.853Z,34.70
2018-06-05T13:18:58.104Z,43.43
2018-06-05T13:21:01.265Z,44.67
2018-06-05T13:23:04.515Z,40.43
2018-06-05T13:25:07.556Z,41.63
2018-06-05T13:27:10.695Z,51.10
2018-06-05T13:29:13.848Z,44.03
2018-06-05T13:31:16.992Z,44.50
2018-06-05T13:33:20.129Z,36.23
2018-06-05T13:35:23.280Z,37.90
2018-06-05T13:37:26.427Z,40.33
2018-06-05T13:39:29.567Z,44.63
2018-06-05T13:41:32.483Z,35.47
2018-06-05T13:43:35.635Z,40.97
2018-06-05T13:45:38.802Z,39.23
2018-06-05T13:47:41.956Z,45.10
2018-06-05T13:49:45.114Z,43.13
2018-06-05T13:51:48.278Z,42.90
2018-06-05T13:53:52.092Z,48.10
2018-06-05T13:55:55.280Z,38.00
2018-06-05T13:57:58.424Z,35.27
2018-06-05T14:00:01.589Z,32.17
2018-06-05T14:02:04.753Z,39.67
2018-06-05T14:04:07.909Z,37.50
2018-06-05T14:06:11.103Z,42.10
2018-06-05T14:08:14.267Z,35.47
2018-06-05T14:10:17.412Z,35.43
2018-06-05T14:12:20.568Z,38.70
2018-06-05T14:14:23.716Z,37.47
2018-06-05T14:16:26.879Z,39.23
2018-06-05T14:18:30.036Z,41.03
2018-06-05T14:20:33.216Z,36.50
2018-06-05T14:22:36.364Z,41.07
2018-06-05T14:24:39.527Z,33.40
2018-06-05T14:26:42.724Z,34.73
2018-06-05T14:28:45.892Z,39.67
2018-06-05T14:30:49.071Z,42.77
2018-06-05T14:32:52.252Z,44.43
2018-06-05T14:34:55.497Z,43.60
2018-06-05T14:36:58.667Z,46.40
2018-06-05T14:39:01.841Z,38.43
2018-06-05T14:41:05.003Z,41.97
2018-06-05T14:43:08.172Z,44.07
2018-06-05T14:45:11.496Z,52.97
2018-06-05T14:47:14.508Z,52.90
2018-06-05T14:49:17.659Z,43.50
2018-06-05T14:51:20.850Z,49.73
2018-06-05T14:53:24.147Z,56.47
2018-06-05T14:55:27.300Z,39.27
2018-06-05T14:57:30.491Z,44.87
2018-06-05T14:59:33.656Z,47.57
2018-06-05T15:01:36.843Z,42.90
2018-06-05T15:03:40.024Z,44.00
2018-06-05T15:05:43.180Z,41.43
2018-06-05T15:07:46.324Z,41.03
2018-06-05T15:09:49.491Z,51.90
2018-06-05T15:11:52.698Z,50.47
2018-06-05T15:13:55.843Z,47.77
2018-06-05T15:15:59.061Z,48.87
2018-06-05T15:18:02.223Z,48.53
2018-06-05T15:20:05.408Z,53.00
2018-06-05T15:22:08.656Z,44.70
2018-06-05T15:24:11.865Z,43.40
2018-06-05T15:26:15.057Z,49.30
2018-06-05T15:28:18.219Z,44.70
2018-06-05T15:30:21.496Z,56.10
2018-06-05T15:32:24.679Z,51.63
2018-06-05T15:34:27.948Z,48.70
2018-06-05T15:36:31.156Z,55.73
2018-06-05T15:38:34.330Z,46.73
2018-06-05T15:40:37.520Z,48.37
2018-06-05T15:42:40.707Z,53.13
2018-06-05T15:44:43.889Z,49.47
2018-06-05T15:46:47.155Z,48.80
2018-06-05T15:48:50.353Z,47.33
2018-06-05T15:50:53.512Z,49.87
2018-06-05T15:52:56.808Z,45.90
2018-06-05T15:55:00.072Z,49.17
2018-06-05T15:57:03.368Z,45.23
2018-06-05T15:59:06.664Z,58.13
2018-06-05T16:01:09.823Z,54.50
2018-06-05T16:03:13.520Z,47.63
2018-06-05T16:05:16.790Z,50.63
2018-06-05T16:07:19.976Z,44.30
2018-06-05T16:09:23.128Z,52.00
2018-06-05T16:11:26.312Z,47.33
2018-06-05T16:13:29.456Z,50.70
2018-06-05T16:15:32.631Z,44.90
2018-06-05T16:17:36.327Z,48.33
2018-06-05T16:19:39.711Z,45.60
2018-06-05T16:21:42.616Z,55.83
2018-06-05T16:23:45.756Z,45.40
2018-06-05T16:25:48.739Z,53.43
2018-06-05T16:27:51.894Z,47.30
2018-06-05T16:29:55.066Z,57.97
2018-06-05T16:31:58.220Z,46.73
2018-06-05T16:34:01.359Z,51.17
2018-06-05T16:36:04.552Z,49.70
2018-06-05T16:38:07.706Z,40.63
2018-06-05T16:40:10.940Z,49.70
2018-06-05T16:42:14.635Z,48.93
2018-06-05T16:44:17.776Z,46.77
2018-06-05T16:46:20.900Z,44.80
2018-06-05T16:48:24.209Z,45.57
2018-06-05T16:50:27.648Z,48.03
2018-06-05T16:52:30.971Z,47.40
2018-06-05T16:54:34.088Z,42.30
2018-06-05T16:56:37.232Z,48.80
2018-06-05T16:58:40.386Z,47.30
2018-06-05T17:00:44.510Z,44.27
2018-06-05T17:02:47.664Z,44.00
2018-06-05T17:04:50.642Z,49.13
2018-06-05T17:06:53.745Z,55.90
2018-06-05T17:08:56.882Z,45.57
2018-06-05T17:11:00.029Z,36.53
2018-06-05T17:13:03.164Z,45.40
2018-06-05T17:15:06.308Z,40.57
2018-06-05T17:17:09.432Z,49.03
2018-06-05T17:19:12.558Z,40.13
2018-06-05T17:21:15.692Z,44.10
2018-06-05T17:23:18.851Z,39.70
2018-06-05T17:25:21.988Z,39.80
2018-06-05T17:27:25.153Z,32.97
2018-06-05T17:29:28.284Z,28.50
2018-06-05T17:31:31.424Z,36.03
2018-06-05T17:33:34.575Z,30.40
2018-06-05T17:35:37.730Z,40.07
2018-06-05T17:37:40.871Z,28.30
2018-06-05T17:39:44.024Z,39.13
2018-06-05T17:41:47.144Z,28.83
2018-06-05T17:43:50.298Z,34.27
2018-06-05T17:45:53.492Z,24.00
2018-06-05T17:47:56.418Z,29.87
2018-06-05T17:49:59.572Z,21.57
2018-06-05T17:52:02.582Z,33.80
2018-06-05T17:54:06.548Z,26.93
2018-06-05T17:56:09.676Z,27.93
2018-06-05T17:58:12.824Z,26.63
2018-06-05T18:00:15.964Z,25.87
2018-06-05T18:02:19.099Z,23.30
2018-06-05T18:04:22.551Z,23.90
2018-06-05T18:06:25.896Z,27.07
2018-06-05T18:08:29.047Z,25.87
2018-06-05T18:10:32.205Z,21.50
2018-06-05T18:12:35.480Z,22.80
2018-06-05T18:14:38.676Z,18.77
2018-06-05T18:16:41.823Z,23.30
2018-06-05T18:18:44.991Z,22.30
2018-06-05T18:20:48.137Z,26.27
2018-06-05T18:22:51.688Z,22.00
2018-06-05T18:24:54.840Z,23.13
2018-06-05T18:26:57.967Z,22.00
2018-06-05T18:29:02.968Z,22.20
2018-06-05T18:31:07.181Z,19.27
2018-06-05T18:33:10.315Z,24.57
2018-06-05T18:35:13.585Z,22.37
2018-06-05T18:37:16.863Z,19.10
2018-06-05T18:39:19.975Z,22.13
2018-06-05T18:41:23.608Z,22.13
2018-06-05T18:43:26.748Z,22.87
2018-06-05T18:45:29.920Z,23.57
2018-06-05T18:47:33.052Z,28.30
2018-06-05T18:49:35.988Z,27.67
2018-06-05T18:51:39.127Z,33.60
2018-06-05T18:53:42.095Z,26.13
2018-06-05T18:55:45.235Z,26.40
2018-06-05T18:57:48.514Z,27.73
2018-06-05T18:59:51.625Z,37.40
2018-06-05T19:01:54.767Z,36.37
2018-06-05T19:03:57.972Z,37.33
2018-06-05T19:06:01.099Z,31.73
2018-06-05T19:08:04.264Z,34.33
2018-06-05T19:10:07.513Z,32.33
2018-06-05T19:12:10.710Z,40.87
2018-06-05T19:14:13.836Z,29.37
2018-06-05T19:16:17.017Z,30.90
2018-06-05T19:18:20.159Z,33.87
2018-06-05T19:20:23.345Z,34.50
2018-06-05T19:22:26.682Z,37.83
2018-06-05T19:24:29.851Z,38.33
2018-06-05T19:26:33.131Z,34.87
2018-06-05T19:28:36.402Z,37.40
2018-06-05T19:30:39.540Z,38.50
2018-06-05T19:32:42.675Z,30.57
2018-06-05T19:34:45.839Z,36.17
2018-06-05T19:36:51.216Z,33.90
2018-06-05T19:38:55.188Z,35.07
2018-06-05T19:40:58.453Z,34.23
2018-06-05T19:43:01.620Z,69.97
2018-06-05T19:45:05.199Z,42.13
2018-06-05T19:47:08.718Z,43.00
2018-06-05T19:49:11.914Z,37.73
2018-06-05T19:51:15.113Z,38.43
2018-06-05T19:53:18.256Z,37.17
2018-06-05T19:55:21.508Z,43.10
2018-06-05T19:57:26.691Z,41.13
2018-06-05T19:59:30.420Z,43.13
2018-06-05T20:01:33.565Z,39.63
2018-06-05T20:03:36.761Z,41.93
2018-06-05T20:05:39.980Z,42.30
2018-06-05T20:07:43.141Z,42.13
2018-06-05T20:09:46.355Z,41.33
2018-06-05T20:11:49.508Z,45.07
2018-06-05T20:13:52.664Z,37.73
2018-06-05T20:15:55.819Z,49.87
2018-06-05T20:17:59.013Z,52.83
2018-06-05T20:20:02.597Z,60.30
2018-06-05T20:22:08.214Z,42.90
2018-06-05T20:24:11.506Z,45.93
2018-06-05T20:26:14.722Z,51.70
2018-06-05T20:28:17.882Z,51.20
2018-06-05T20:30:21.451Z,41.17
2018-06-05T20:32:24.611Z,50.20
2018-06-05T20:34:27.792Z,46.07
2018-06-05T20:36:30.703Z,39.70
2018-06-05T20:38:33.868Z,49.47
2018-06-05T20:40:37.870Z,44.93
2018-06-05T20:42:41.029Z,52.43
2018-06-05T20:44:44.200Z,47.03
2018-06-05T20:46:47.351Z,50.03
2018-06-05T20:48:51.361Z,43.27
2018-06-05T20:50:54.447Z,47.23
2018-06-05T20:52:58.887Z,40.73
2018-06-05T20:55:02.091Z,52.17
2018-06-05T20:57:05.959Z,51.20
2018-06-05T20:59:09.093Z,45.87
2018-06-05T21:01:12.231Z,49.77
2018-06-05T21:03:15.348Z,53.27
2018-06-05T21:05:18.497Z,44.07
2018-06-05T21:07:21.612Z,44.33
2018-06-05T21:09:24.761Z,42.00
2018-06-05T21:11:27.892Z,44.00
2018-06-05T21:13:31.076Z,44.40
2018-06-05T21:15:34.232Z,48.33
2018-06-05T21:17:37.391Z,60.77
2018-06-05T21:19:40.598Z,51.00
2018-06-05T21:21:44.356Z,46.20
2018-06-05T21:23:47.492Z,43.63
2018-06-05T21:25:50.620Z,59.43
2018-06-05T21:27:53.788Z,47.77
2018-06-05T21:29:56.907Z,61.17
2018-06-05T21:32:00.052Z,63.23
2018-06-05T21:34:03.194Z,42.30
2018-06-05T21:36:06.091Z,50.97
2018-06-05T21:38:09.255Z,50.10
2018-06-05T21:40:12.224Z,51.10
2018-06-05T21:42:15.380Z,50.03
2018-06-05T21:44:18.536Z,48.93
2018-06-05T21:46:21.685Z,55.90
2018-06-05T21:48:24.830Z,52.60
2018-06-05T21:50:27.972Z,59.20
2018-06-05T21:52:31.116Z,59.10
2018-06-05T21:54:34.281Z,55.70
2018-06-05T21:56:37.440Z,67.90
2018-06-05T21:58:40.595Z,66.57
2018-06-05T22:00:43.752Z,53.90
2018-06-05T22:02:46.900Z,53.73
2018-06-05T22:04:50.067Z,49.97
2018-06-05T22:06:53.216Z,62.43
2018-06-05T22:08:56.352Z,52.67
2018-06-05T22:10:59.524Z,65.27
2018-06-05T22:13:02.663Z,51.27
2018-06-05T22:15:05.824Z,52.43
2018-06-05T22:17:09.635Z,55.00
2018-06-05T22:19:12.807Z,63.47
2018-06-05T22:21:15.956Z,57.83
2018-06-05T22:23:19.143Z,65.30
2018-06-05T22:25:22.304Z,64.30
2018-06-05T22:27:25.496Z,61.13
2018-06-05T22:29:28.639Z,46.80
2018-06-05T22:31:31.860Z,47.97
2018-06-05T22:33:35.025Z,49.23
2018-06-05T22:35:38.172Z,47.40
2018-06-05T22:37:41.332Z,50.80
2018-06-05T22:39:44.492Z,60.97
2018-06-05T22:41:47.635Z,56.23
2018-06-05T22:43:50.553Z,62.73
2018-06-05T22:45:53.691Z,71.43
2018-06-05T22:47:56.827Z,55.07
2018-06-05T22:50:00.011Z,48.67
2018-06-05T22:52:03.148Z,61.87
2018-06-05T22:54:06.335Z,78.50
2018-06-05T22:56:09.480Z,77.50
2018-06-05T22:58:12.612Z,84.10
2018-06-05T23:00:26.924Z,79.03
2018-06-05T23:02:30.128Z,80.63
2018-06-05T23:04:33.261Z,76.60
2018-06-05T23:06:36.420Z,88.03
2018-06-05T23:08:39.707Z,70.73
2018-06-05T23:10:42.881Z,65.63
2018-06-05T23:12:46.031Z,67.80
2018-06-05T23:14:49.180Z,76.67
2018-06-05T23:16:52.327Z,73.83
2018-06-05T23:18:55.452Z,66.50
2018-06-05T23:20:58.696Z,79.63
2018-06-05T23:23:01.918Z,69.13
2018-06-05T23:25:05.959Z,68.87
2018-06-05T23:27:09.239Z,76.53
2018-06-05T23:29:12.400Z,89.17
2018-06-05T23:31:15.541Z,89.07
2018-06-05T23:33:18.681Z,83.70
2018-06-05T23:35:21.880Z,100.07
2018-06-05T23:37:25.024Z,88.57
2018-06-05T23:39:28.285Z,81.17
2018-06-05T23:41:31.195Z,84.03
2018-06-05T23:43:34.348Z,87.43
2018-06-05T23:45:37.504Z,84.90
2018-06-05T23:47:40.652Z,73.87
2018-06-05T23:49:43.812Z,82.43
2018-06-05T23:51:46.956Z,78.97
2018-06-05T23:53:50.103Z,83.23
2018-06-05T23:55:53.284Z,96.77
2018-06-05T23:57:56.448Z,85.30
2018-06-05T23:59:59.596Z,92.03
